createdAt,value
2022-10-02T00:00:18.612Z,100929.22
2022-10-02T00:00:41.079Z,100918.44
2022-10-02T00:01:23.568Z,100910.44
2022-10-02T00:01:51.369Z,100903.41
2022-10-02T00:02:16.822Z,100911.84
2022-10-02T00:02:43.973Z,100914.63
2022-10-02T00:03:12.132Z,100909.41
2022-10-02T00:03:38.422Z,100924.31
2022-10-02T00:04:01.409Z,100914.44
2022-10-02T00:04:29.808Z,100904.91
2022-10-02T00:04:57.576Z,100922.41
2022-10-02T00:05:24.177Z,100918.06
2022-10-02T00:05:49.907Z,100912.88
2022-10-02T00:06:18.174Z,100909.50
2022-10-02T00:06:46.022Z,100912.97
2022-10-02T00:07:10.987Z,100918.94
2022-10-02T00:07:39.188Z,100924.22
2022-10-02T00:08:04.877Z,100925.00
2022-10-02T00:08:33.150Z,100930.28
2022-10-02T00:08:59.551Z,100927.53
2022-10-02T00:09:29.025Z,100927.59
2022-10-02T00:09:55.369Z,100929.41
2022-10-02T00:10:22.818Z,100929.28
2022-10-02T00:10:48.457Z,100931.94
2022-10-02T00:11:16.334Z,100925.59
2022-10-02T00:11:44.284Z,100932.03
2022-10-02T00:12:12.076Z,100924.06
2022-10-02T00:12:35.946Z,100926.91
2022-10-02T00:13:02.039Z,100927.78
2022-10-02T00:13:26.367Z,100932.97
2022-10-02T00:13:53.268Z,100930.34
2022-10-02T00:14:17.898Z,100937.56
2022-10-02T00:14:42.409Z,100933.91
2022-10-02T00:15:13.146Z,100932.97
2022-10-02T00:15:38.241Z,100928.47
2022-10-02T00:16:04.980Z,100929.34
2022-10-02T00:16:38.011Z,100935.56
2022-10-02T00:17:02.545Z,100938.19
2022-10-02T00:17:29.361Z,100937.63
2022-10-02T00:17:55.324Z,100937.63
2022-10-02T00:18:22.917Z,100932.28
2022-10-02T00:18:47.657Z,100938.66
2022-10-02T00:19:12.326Z,100937.03
2022-10-02T00:19:33.913Z,100933.22
2022-10-02T00:19:58.420Z,100933.22
2022-10-02T00:21:15.766Z,100930.53
2022-10-02T00:21:46.760Z,100918.94
2022-10-02T00:22:35.609Z,100924.41
2022-10-02T00:23:02.065Z,100929.78
2022-10-02T00:23:31.324Z,100918.06
2022-10-02T00:23:57.364Z,100919.88
2022-10-02T00:24:24.944Z,100923.69
2022-10-02T00:24:52.410Z,100916.50
2022-10-02T00:25:23.690Z,100919.13
2022-10-02T00:25:55.605Z,100924.47
2022-10-02T00:26:25.272Z,100922.56
2022-10-02T00:26:56.942Z,100919.81
2022-10-02T00:27:41.394Z,100934.97
2022-10-02T00:28:14.762Z,100931.16
2022-10-02T00:28:46.418Z,100947.19
2022-10-02T00:29:25.421Z,100937.31
2022-10-02T00:29:49.650Z,100943.44
2022-10-02T00:30:15.251Z,100946.06
2022-10-02T00:30:52.097Z,100937.31
2022-10-02T00:31:29.269Z,100938.88
2022-10-02T00:32:00.632Z,100942.69
2022-10-02T00:32:32.247Z,100933.84
2022-10-02T00:33:04.443Z,100937.47
2022-10-02T00:33:33.058Z,100937.31
2022-10-02T00:34:12.958Z,100938.00
2022-10-02T00:34:49.449Z,100939.03
2022-10-02T00:35:35.273Z,100935.50
2022-10-02T00:36:07.686Z,100940.06
2022-10-02T00:36:44.851Z,100942.75
2022-10-02T00:37:14.088Z,100940.94
2022-10-02T00:37:46.706Z,100937.47
2022-10-02T00:38:19.469Z,100930.78
2022-10-02T00:38:55.503Z,100948.91
2022-10-02T00:39:28.109Z,100946.31
2022-10-02T00:40:01.857Z,100953.22
2022-10-02T00:40:57.308Z,100945.19
2022-10-02T00:41:47.296Z,100951.16
2022-10-02T00:42:48.302Z,100948.31
2022-10-02T00:43:24.371Z,100940.25
2022-10-02T00:44:03.084Z,100951.84
2022-10-02T00:44:43.381Z,100940.44
2022-10-02T00:45:34.027Z,100948.81
2022-10-02T00:46:32.083Z,100949.44
2022-10-02T00:47:04.547Z,100954.97
2022-10-02T00:47:38.076Z,100949.59
2022-10-02T00:48:07.784Z,100958.34
2022-10-02T00:48:44.449Z,100952.22
2022-10-02T00:49:24.185Z,100954.66
2022-10-02T00:49:58.617Z,100956.84
2022-10-02T00:50:35.612Z,100957.59
2022-10-02T00:51:09.313Z,100959.41
2022-10-02T00:51:44.031Z,100963.72
2022-10-02T00:52:22.445Z,100954.66
2022-10-02T00:52:59.616Z,100950.03
2022-10-02T00:53:32.746Z,100965.53
2022-10-02T00:54:06.185Z,100968.06
2022-10-02T00:54:51.072Z,100964.50
2022-10-02T00:55:35.019Z,100963.63
2022-10-02T00:56:09.968Z,100971.69
2022-10-02T00:56:41.422Z,100970.88
2022-10-02T00:57:11.650Z,100962.78
2022-10-02T00:57:49.311Z,100973.31
2022-10-02T00:58:34.238Z,100967.84
2022-10-02T00:59:13.464Z,100957.97
2022-10-02T00:59:55.601Z,100966.78
2022-10-02T01:00:19.113Z,100961.34
2022-10-02T01:00:47.787Z,100971.28
2022-10-02T01:01:13.785Z,100963.41
2022-10-02T01:01:42.452Z,100958.66
2022-10-02T01:02:11.119Z,100955.91
2022-10-02T01:03:01.643Z,100960.41
2022-10-02T01:03:27.087Z,100963.09
2022-10-02T01:03:54.106Z,100962.22
2022-10-02T01:04:24.559Z,100957.63
2022-10-02T01:04:47.980Z,100955.72
2022-10-02T01:05:11.591Z,100961.16
2022-10-02T01:05:34.158Z,100958.34
2022-10-02T01:05:55.862Z,100955.66
2022-10-02T01:06:18.478Z,100953.13
2022-10-02T01:06:40.572Z,100963.09
2022-10-02T01:07:04.244Z,100949.81
2022-10-02T01:07:27.785Z,100948.81
2022-10-02T01:07:55.387Z,100949.69
2022-10-02T01:08:17.352Z,100954.25
2022-10-02T01:08:39.077Z,100951.50
2022-10-02T01:09:01.308Z,100952.25
2022-10-02T01:09:25.279Z,100954.88
2022-10-02T01:09:48.385Z,100959.28
2022-10-02T01:10:11.794Z,100948.97
2022-10-02T01:10:35.005Z,100957.72
2022-10-02T01:10:57.855Z,100958.41
2022-10-02T01:11:20.856Z,100960.16
2022-10-02T01:11:44.149Z,100960.91
2022-10-02T01:12:06.729Z,100961.78
2022-10-02T01:12:29.673Z,100956.41
2022-10-02T01:12:52.040Z,100956.41
2022-10-02T01:13:13.633Z,100964.41
2022-10-02T01:13:36.194Z,100959.03
2022-10-02T01:13:57.887Z,100953.91
2022-10-02T01:14:19.500Z,100961.78
2022-10-02T01:14:41.359Z,100965.41
2022-10-02T01:15:12.377Z,100966.28
2022-10-02T01:15:37.515Z,100969.94
2022-10-02T01:16:00.472Z,100965.34
2022-10-02T01:16:22.191Z,100968.03
2022-10-02T01:16:46.812Z,100968.03
2022-10-02T01:17:23.047Z,100965.28
2022-10-02T01:17:46.546Z,100967.09
2022-10-02T01:18:12.764Z,100969.94
2022-10-02T01:18:35.271Z,100960.16
2022-10-02T01:18:57.260Z,100964.72
2022-10-02T01:19:26.427Z,100963.16
2022-10-02T01:19:49.183Z,100959.53
2022-10-02T01:20:17.610Z,100963.84
2022-10-02T01:20:42.525Z,100960.41
2022-10-02T01:21:12.539Z,100958.50
2022-10-02T01:21:43.664Z,100958.41
2022-10-02T01:22:11.045Z,100962.03
2022-10-02T01:22:38.600Z,100955.91
2022-10-02T01:23:09.167Z,100959.44
2022-10-02T01:23:39.526Z,100967.41
2022-10-02T01:24:09.897Z,100964.72
2022-10-02T01:24:36.877Z,100964.66
2022-10-02T01:25:05.028Z,100956.69
2022-10-02T01:25:26.603Z,100961.28
2022-10-02T01:25:48.266Z,100960.41
2022-10-02T01:26:10.940Z,100963.97
2022-10-02T01:26:32.710Z,100961.28
2022-10-02T01:26:54.658Z,100963.00
2022-10-02T01:27:16.636Z,100953.38
2022-10-02T01:27:39.524Z,100961.28
2022-10-02T01:28:02.482Z,100962.91
2022-10-02T01:28:25.215Z,100954.00
2022-10-02T01:28:47.308Z,100960.16
2022-10-02T01:29:08.940Z,100958.34
2022-10-02T01:29:32.060Z,100966.28
2022-10-02T01:29:57.278Z,100958.16
2022-10-02T01:30:20.589Z,100961.63
2022-10-02T01:30:45.972Z,100961.63
2022-10-02T01:31:11.534Z,100964.72
2022-10-02T01:31:35.442Z,100960.78
2022-10-02T01:31:57.167Z,100966.22
2022-10-02T01:32:18.869Z,100967.88
2022-10-02T01:32:44.066Z,100959.22
2022-10-02T01:33:06.889Z,100979.56
2022-10-02T01:33:28.608Z,100973.25
2022-10-02T01:33:51.375Z,100976.00
2022-10-02T01:34:14.030Z,100971.50
2022-10-02T01:34:36.436Z,100965.19
2022-10-02T01:35:00.626Z,100964.22
2022-10-02T01:35:26.540Z,100968.81
2022-10-02T01:35:49.884Z,100970.63
2022-10-02T01:36:13.769Z,100969.69
2022-10-02T01:36:35.881Z,100947.25
2022-10-02T01:36:58.106Z,100969.59
2022-10-02T01:37:22.876Z,100971.50
2022-10-02T01:37:45.006Z,100968.91
2022-10-02T01:38:09.797Z,100967.09
2022-10-02T01:38:31.716Z,100970.72
2022-10-02T01:38:56.072Z,100963.53
2022-10-02T01:39:17.995Z,100966.13
2022-10-02T01:39:40.489Z,100971.50
2022-10-02T01:40:09.177Z,100961.72
2022-10-02T01:40:34.154Z,100971.66
2022-10-02T01:40:55.712Z,100973.38
2022-10-02T01:41:17.339Z,100964.56
2022-10-02T01:41:44.333Z,100970.72
2022-10-02T01:42:06.140Z,100964.56
2022-10-02T01:42:27.861Z,100966.22
2022-10-02T01:42:50.760Z,100969.75
2022-10-02T01:43:17.005Z,100959.91
2022-10-02T01:43:41.805Z,100954.00
2022-10-02T01:44:04.631Z,100967.00
2022-10-02T01:44:27.254Z,100962.72
2022-10-02T01:44:49.920Z,100954.78
2022-10-02T01:45:11.586Z,100964.09
2022-10-02T01:45:57.909Z,100962.13
2022-10-02T01:46:34.026Z,100969.22
2022-10-02T01:47:04.436Z,100972.69
2022-10-02T01:47:35.432Z,100968.22
2022-10-02T01:48:08.402Z,100972.44
2022-10-02T01:48:44.958Z,100978.63
2022-10-02T01:49:17.296Z,100975.06
2022-10-02T01:49:55.886Z,100973.25
2022-10-02T01:50:27.212Z,100969.69
2022-10-02T01:51:05.053Z,100956.41
2022-10-02T01:51:55.056Z,100972.13
2022-10-02T01:52:27.101Z,100972.00
2022-10-02T01:53:00.565Z,100977.38
2022-10-02T01:53:32.378Z,100974.69
2022-10-02T01:54:03.580Z,100977.38
2022-10-02T01:54:41.518Z,100974.81
2022-10-02T01:55:17.160Z,100974.00
2022-10-02T01:55:49.829Z,100972.19
2022-10-02T01:56:19.270Z,100969.44
2022-10-02T01:56:47.043Z,100963.78
2022-10-02T01:57:18.949Z,100966.28
2022-10-02T01:57:55.370Z,100957.88
2022-10-02T01:58:29.552Z,100967.25
2022-10-02T01:59:00.328Z,100973.47
2022-10-02T01:59:32.405Z,100968.97
2022-10-02T02:00:06.272Z,100971.84
2022-10-02T02:00:46.580Z,100970.03
2022-10-02T02:01:18.059Z,100969.94
2022-10-02T02:01:47.599Z,100974.34
2022-10-02T02:02:17.154Z,100965.59
2022-10-02T02:02:53.633Z,100967.09
2022-10-02T02:03:22.900Z,100959.91
2022-10-02T02:03:54.842Z,100966.13
2022-10-02T02:04:24.181Z,100969.59
2022-10-02T02:04:55.531Z,100966.91
2022-10-02T02:05:26.777Z,100966.81
2022-10-02T02:05:53.324Z,100964.22
2022-10-02T02:06:26.416Z,100966.91
2022-10-02T02:06:55.954Z,100969.44
2022-10-02T02:07:25.966Z,100971.13
2022-10-02T02:07:53.224Z,100969.44
2022-10-02T02:08:23.483Z,100970.31
2022-10-02T02:08:56.446Z,100967.69
2022-10-02T02:09:25.460Z,100964.31
2022-10-02T02:09:55.233Z,100973.31
2022-10-02T02:10:25.851Z,100970.97
2022-10-02T02:10:55.888Z,100968.22
2022-10-02T02:11:20.097Z,100968.97
2022-10-02T02:11:48.868Z,100968.03
2022-10-02T02:12:16.089Z,100974.19
2022-10-02T02:12:43.102Z,100968.53
2022-10-02T02:13:14.169Z,100973.56
2022-10-02T02:13:45.149Z,100974.34
2022-10-02T02:14:15.236Z,100970.97
2022-10-02T02:14:42.757Z,100976.94
2022-10-02T02:15:09.144Z,100971.31
2022-10-02T02:15:40.178Z,100969.84
2022-10-02T02:16:07.979Z,100974.00
2022-10-02T02:16:35.997Z,100960.84
2022-10-02T02:17:05.441Z,100971.00
2022-10-02T02:17:34.043Z,100969.25
2022-10-02T02:17:59.218Z,100961.28
2022-10-02T02:18:27.714Z,100962.00
2022-10-02T02:18:54.453Z,100962.00
2022-10-02T02:19:20.204Z,100965.63
2022-10-02T02:19:47.789Z,100957.97
2022-10-02T02:20:16.311Z,100971.94
2022-10-02T02:20:46.321Z,100973.69
2022-10-02T02:21:14.630Z,100971.75
2022-10-02T02:21:41.157Z,100972.81
2022-10-02T02:22:08.381Z,100970.06
2022-10-02T02:22:34.126Z,100967.38
2022-10-02T02:23:03.803Z,100977.03
2022-10-02T02:23:30.698Z,100972.38
2022-10-02T02:23:56.061Z,100973.25
2022-10-02T02:24:22.717Z,100974.09
2022-10-02T02:24:52.281Z,100973.16
2022-10-02T02:25:18.322Z,100965.97
2022-10-02T02:25:45.214Z,100966.84
2022-10-02T02:26:12.207Z,100959.75
2022-10-02T02:26:36.132Z,100963.38
2022-10-02T02:27:01.460Z,100959.94
2022-10-02T02:27:26.781Z,100955.56
2022-10-02T02:27:53.135Z,100960.69
2022-10-02T02:28:20.251Z,100959.81
2022-10-02T02:28:48.756Z,100956.44
2022-10-02T02:29:12.035Z,100956.25
2022-10-02T02:29:37.286Z,100960.78
2022-10-02T02:30:05.480Z,100955.31
2022-10-02T02:30:31.572Z,100951.88
2022-10-02T02:30:55.753Z,100956.19
2022-10-02T02:31:22.447Z,100955.44
2022-10-02T02:31:51.095Z,100951.69
2022-10-02T02:32:18.064Z,100956.25
2022-10-02T02:32:50.140Z,100960.69
2022-10-02T02:33:17.171Z,100958.00
2022-10-02T02:33:41.870Z,100955.25
2022-10-02T02:34:08.380Z,100959.66
2022-10-02T02:34:35.162Z,100956.25
2022-10-02T02:35:04.386Z,100961.81
2022-10-02T02:35:32.943Z,100961.47
2022-10-02T02:35:58.470Z,100959.75
2022-10-02T02:36:25.867Z,100964.16
2022-10-02T02:36:52.360Z,100963.22
2022-10-02T02:37:19.133Z,100959.56
2022-10-02T02:37:45.094Z,100964.94
2022-10-02T02:38:13.478Z,100961.47
2022-10-02T02:38:38.859Z,100964.09
2022-10-02T02:39:05.867Z,100958.78
2022-10-02T02:39:33.971Z,100952.56
2022-10-02T02:39:58.111Z,100952.47
2022-10-02T02:40:24.440Z,100950.66
2022-10-02T02:40:48.015Z,100952.47
2022-10-02T02:41:14.951Z,100950.22
2022-10-02T02:41:41.829Z,100947.72
2022-10-02T02:42:08.642Z,100943.81
2022-10-02T02:42:33.039Z,100948.31
2022-10-02T02:43:00.789Z,100946.41
2022-10-02T02:43:28.760Z,100948.22
2022-10-02T02:43:55.039Z,100956.25
2022-10-02T02:44:22.068Z,100951.94
2022-10-02T02:44:49.895Z,100952.03
2022-10-02T02:45:16.140Z,100953.84
2022-10-02T02:45:40.479Z,100953.75
2022-10-02T02:46:07.688Z,100951.88
2022-10-02T02:46:35.544Z,100949.94
2022-10-02T02:47:04.078Z,100955.50
2022-10-02T02:47:29.085Z,100953.59
2022-10-02T02:47:53.368Z,100953.50
2022-10-02T02:48:22.719Z,100957.13
2022-10-02T02:48:49.776Z,100960.53
2022-10-02T02:49:12.932Z,100958.88
2022-10-02T02:49:46.376Z,100963.22
2022-10-02T02:50:15.634Z,100963.22
2022-10-02T02:50:43.644Z,100959.56
2022-10-02T02:51:10.096Z,100960.44
2022-10-02T02:51:37.405Z,100963.97
2022-10-02T02:52:03.801Z,100968.75
2022-10-02T02:52:30.018Z,100958.94
2022-10-02T02:52:55.932Z,100962.75
2022-10-02T02:53:21.432Z,100963.63
2022-10-02T02:53:49.226Z,100967.38
2022-10-02T02:54:15.286Z,100967.38
2022-10-02T02:54:40.211Z,100966.38
2022-10-02T02:55:09.460Z,100968.06
2022-10-02T02:55:33.844Z,100968.94
2022-10-02T02:56:00.363Z,100965.28
2022-10-02T02:56:22.582Z,100977.66
2022-10-02T02:56:48.093Z,100973.25
2022-10-02T02:57:13.587Z,100974.81
2022-10-02T02:57:40.923Z,100971.16
2022-10-02T02:58:08.360Z,100971.09
2022-10-02T02:58:35.397Z,100971.88
2022-10-02T02:59:00.267Z,100972.72
2022-10-02T02:59:23.643Z,100978.00
2022-10-02T02:59:50.572Z,100972.84
2022-10-02T03:00:14.212Z,100978.28
2022-10-02T03:00:35.833Z,100974.66
2022-10-02T03:00:58.885Z,100973.84
2022-10-02T03:01:23.503Z,100969.34
2022-10-02T03:01:45.515Z,100972.97
2022-10-02T03:02:08.727Z,100980.09
2022-10-02T03:02:30.566Z,100973.84
2022-10-02T03:02:55.592Z,100964.09
2022-10-02T03:03:17.240Z,100968.47
2022-10-02T03:03:40.750Z,100972.28
2022-10-02T03:04:02.639Z,100956.44
2022-10-02T03:04:24.293Z,100971.34
2022-10-02T03:04:48.199Z,100973.16
2022-10-02T03:05:13.758Z,100970.66
2022-10-02T03:05:39.098Z,100973.25
2022-10-02T03:06:06.242Z,100972.22
2022-10-02T03:06:33.532Z,100974.03
2022-10-02T03:07:03.520Z,100973.16
2022-10-02T03:07:25.224Z,100971.53
2022-10-02T03:07:53.729Z,100966.16
2022-10-02T03:08:20.206Z,100966.84
2022-10-02T03:08:42.951Z,100966.84
2022-10-02T03:09:06.952Z,100964.94
2022-10-02T03:09:32.293Z,100972.16
2022-10-02T03:10:03.020Z,100965.78
2022-10-02T03:10:40.186Z,100960.44
2022-10-02T03:11:14.000Z,100963.03
2022-10-02T03:11:48.822Z,100963.03
2022-10-02T03:12:21.661Z,100952.22
2022-10-02T03:12:54.940Z,100953.84
2022-10-02T03:13:31.197Z,100953.84
2022-10-02T03:14:02.076Z,100943.19
2022-10-02T03:14:58.379Z,100950.03
2022-10-02T03:15:29.625Z,100952.66
2022-10-02T03:16:04.766Z,100957.00
2022-10-02T03:16:39.516Z,100958.88
2022-10-02T03:17:08.625Z,100958.69
2022-10-02T03:17:50.929Z,100949.28
2022-10-02T03:18:23.185Z,100951.84
2022-10-02T03:18:58.066Z,100960.50
2022-10-02T03:19:30.349Z,100956.13
2022-10-02T03:20:00.630Z,100963.31
2022-10-02T03:20:31.960Z,100957.34
2022-10-02T03:21:07.326Z,100957.34
2022-10-02T03:21:35.495Z,100953.69
2022-10-02T03:22:05.059Z,100958.19
2022-10-02T03:22:36.640Z,100957.34
2022-10-02T03:23:07.164Z,100959.06
2022-10-02T03:23:34.570Z,100962.59
2022-10-02T03:24:05.694Z,100950.22
2022-10-02T03:24:33.336Z,100955.50
2022-10-02T03:25:01.345Z,100958.09
2022-10-02T03:25:31.700Z,100953.78
2022-10-02T03:26:00.592Z,100960.28
2022-10-02T03:26:32.231Z,100963.66
2022-10-02T03:27:01.920Z,100952.97
2022-10-02T03:27:34.644Z,100964.50
2022-10-02T03:28:03.466Z,100959.28
2022-10-02T03:28:54.252Z,100957.66
2022-10-02T03:29:20.257Z,100950.41
2022-10-02T03:29:49.236Z,100951.09
2022-10-02T03:30:12.793Z,100951.00
2022-10-02T03:30:36.565Z,100951.09
2022-10-02T03:31:01.435Z,100957.06
2022-10-02T03:31:26.666Z,100955.59
2022-10-02T03:31:49.752Z,100950.41
2022-10-02T03:32:14.693Z,100955.41
2022-10-02T03:32:39.851Z,100956.47
2022-10-02T03:33:03.363Z,100961.22
2022-10-02T03:33:29.504Z,100955.66
2022-10-02T03:33:53.948Z,100958.53
2022-10-02T03:34:17.984Z,100953.84
2022-10-02T03:34:40.244Z,100951.16
2022-10-02T03:35:05.233Z,100951.16
2022-10-02T03:35:28.088Z,100959.16
2022-10-02T03:35:51.547Z,100954.53
2022-10-02T03:36:17.753Z,100953.69
2022-10-02T03:36:40.995Z,100952.13
2022-10-02T03:37:03.653Z,100957.94
2022-10-02T03:37:25.852Z,100958.00
2022-10-02T03:37:52.518Z,100955.50
2022-10-02T03:38:14.835Z,100956.47
2022-10-02T03:38:38.603Z,100954.31
2022-10-02T03:39:45.860Z,100959.81
2022-10-02T03:40:08.265Z,100955.78
2022-10-02T03:40:30.069Z,100957.66
2022-10-02T03:40:57.944Z,100958.00
2022-10-02T03:41:19.543Z,100953.44
2022-10-02T03:41:42.722Z,100956.19
2022-10-02T03:42:07.447Z,100956.97
2022-10-02T03:42:32.951Z,100955.91
2022-10-02T03:42:58.189Z,100951.53
2022-10-02T03:43:24.524Z,100951.25
2022-10-02T03:43:46.148Z,100951.00
2022-10-02T03:44:07.741Z,100954.63
2022-10-02T03:44:29.350Z,100954.44
2022-10-02T03:44:52.097Z,100943.44
2022-10-02T03:45:32.709Z,100956.72
2022-10-02T03:45:56.863Z,100949.28
2022-10-02T03:46:19.736Z,100954.72
2022-10-02T03:46:41.433Z,100939.56
2022-10-02T03:47:03.112Z,100949.44
2022-10-02T03:47:24.699Z,100944.44
2022-10-02T03:47:48.459Z,100952.56
2022-10-02T03:48:10.078Z,100956.25
2022-10-02T03:48:31.933Z,100945.53
2022-10-02T03:48:56.342Z,100954.28
2022-10-02T03:49:20.183Z,100954.13
2022-10-02T03:49:41.801Z,100946.06
2022-10-02T03:50:04.965Z,100946.75
2022-10-02T03:50:26.503Z,100958.63
2022-10-02T03:50:50.645Z,100954.13
2022-10-02T03:51:12.230Z,100953.34
2022-10-02T03:51:33.811Z,100954.03
2022-10-02T03:51:56.333Z,100963.22
2022-10-02T03:52:21.134Z,100962.50
2022-10-02T03:52:42.985Z,100953.94
2022-10-02T03:53:11.100Z,100951.25
2022-10-02T03:53:35.291Z,100959.94
2022-10-02T03:53:58.530Z,100942.59
2022-10-02T03:54:21.685Z,100960.69
2022-10-02T03:54:45.192Z,100956.97
2022-10-02T03:55:20.665Z,100959.47
2022-10-02T03:55:46.717Z,100955.25
2022-10-02T03:56:12.456Z,100955.16
2022-10-02T03:56:40.534Z,100960.44
2022-10-02T03:57:06.357Z,100959.22
2022-10-02T03:57:30.209Z,100952.97
2022-10-02T03:57:53.957Z,100961.22
2022-10-02T03:58:18.512Z,100963.03
2022-10-02T03:58:45.833Z,100969.00
2022-10-02T03:59:16.840Z,100964.44
2022-10-02T03:59:46.645Z,100959.41
2022-10-02T04:00:14.124Z,100969.19
2022-10-02T04:00:39.432Z,100956.03
2022-10-02T04:01:05.705Z,100975.34
2022-10-02T04:01:32.443Z,100962.25
2022-10-02T04:01:58.152Z,100964.09
2022-10-02T04:02:28.086Z,100953.06
2022-10-02T04:02:54.098Z,100965.03
2022-10-02T04:03:20.392Z,100961.47
2022-10-02T04:03:50.191Z,100959.94
2022-10-02T04:04:17.679Z,100962.34
2022-10-02T04:04:45.408Z,100962.34
2022-10-02T04:05:18.790Z,100962.44
2022-10-02T04:05:43.070Z,100960.63
2022-10-02T04:06:09.787Z,100960.53
2022-10-02T04:06:44.271Z,100959.75
2022-10-02T04:07:13.200Z,100954.56
2022-10-02T04:07:40.269Z,100956.78
2022-10-02T04:08:08.641Z,100948.41
2022-10-02T04:08:36.522Z,100962.09
2022-10-02T04:09:03.222Z,100956.53
2022-10-02T04:09:29.857Z,100955.50
2022-10-02T04:10:02.554Z,100958.97
2022-10-02T04:10:36.865Z,100955.41
2022-10-02T04:11:05.288Z,100964.25
2022-10-02T04:11:34.519Z,100967.72
2022-10-02T04:12:02.289Z,100962.25
2022-10-02T04:12:28.856Z,100973.94
2022-10-02T04:12:54.399Z,100965.06
2022-10-02T04:13:22.637Z,100966.00
2022-10-02T04:13:48.539Z,100965.13
2022-10-02T04:14:16.505Z,100963.38
2022-10-02T04:14:44.818Z,100961.38
2022-10-02T04:15:16.526Z,100966.75
2022-10-02T04:15:53.115Z,100957.16
2022-10-02T04:16:20.289Z,100963.19
2022-10-02T04:16:48.256Z,100967.63
2022-10-02T04:17:16.787Z,100968.22
2022-10-02T04:17:44.107Z,100967.34
2022-10-02T04:18:10.321Z,100973.72
2022-10-02T04:18:38.884Z,100981.91
2022-10-02T04:19:04.041Z,100966.94
2022-10-02T04:19:30.106Z,100967.03
2022-10-02T04:19:56.761Z,100971.44
2022-10-02T04:20:25.544Z,100969.44
2022-10-02T04:20:53.621Z,100966.75
2022-10-02T04:21:34.297Z,100968.41
2022-10-02T04:22:02.520Z,100978.22
2022-10-02T04:22:34.454Z,100972.66
2022-10-02T04:23:04.290Z,100979.75
2022-10-02T04:23:30.948Z,100977.06
2022-10-02T04:23:59.575Z,100969.00
2022-10-02T04:24:29.598Z,100977.94
2022-10-02T04:24:59.108Z,100968.06
2022-10-02T04:25:22.955Z,100978.63
2022-10-02T04:25:51.847Z,100975.06
2022-10-02T04:26:17.841Z,100970.66
2022-10-02T04:26:45.380Z,100969.63
2022-10-02T04:27:14.252Z,100978.47
2022-10-02T04:27:41.003Z,100969.56
2022-10-02T04:28:09.194Z,100969.63
2022-10-02T04:28:42.830Z,100966.88
2022-10-02T04:29:13.976Z,100974.66
2022-10-02T04:29:39.836Z,100971.88
2022-10-02T04:30:05.967Z,100974.53
2022-10-02T04:30:30.108Z,100976.22
2022-10-02T04:30:53.043Z,100974.47
2022-10-02T04:31:14.770Z,100974.47
2022-10-02T04:31:36.489Z,100979.75
2022-10-02T04:32:06.568Z,100971.78
2022-10-02T04:32:31.020Z,100973.72
2022-10-02T04:32:53.859Z,100975.25
2022-10-02T04:33:18.563Z,100977.94
2022-10-02T04:33:41.619Z,100960.63
2022-10-02T04:34:05.318Z,100977.34
2022-10-02T04:34:30.471Z,100971.19
2022-10-02T04:34:53.020Z,100982.59
2022-10-02T04:35:18.247Z,100978.22
2022-10-02T04:35:48.331Z,100985.56
2022-10-02T04:36:24.759Z,100976.88
2022-10-02T04:37:09.194Z,100985.81
2022-10-02T04:37:45.108Z,100979.50
2022-10-02T04:38:42.135Z,100988.22
2022-10-02T04:39:20.391Z,100986.41
2022-10-02T04:40:08.409Z,100991.28
2022-10-02T04:40:43.441Z,100984.50
2022-10-02T04:41:20.609Z,100988.69
2022-10-02T04:41:57.341Z,100993.00
2022-10-02T04:42:28.848Z,100989.56
2022-10-02T04:43:07.734Z,100992.91
2022-10-02T04:43:45.696Z,100991.44
2022-10-02T04:44:19.599Z,100997.59
2022-10-02T04:44:53.212Z,100988.69
2022-10-02T04:45:29.662Z,100991.38
2022-10-02T04:46:03.277Z,100986.00
2022-10-02T04:46:45.110Z,100982.50
2022-10-02T04:47:23.558Z,100979.75
2022-10-02T04:48:07.591Z,100986.59
2022-10-02T04:48:48.372Z,100993.72
2022-10-02T04:49:29.693Z,100986.16
2022-10-02T04:50:06.104Z,100988.94
2022-10-02T04:50:51.657Z,100997.06
2022-10-02T04:51:26.519Z,100983.72
2022-10-02T04:52:05.046Z,100978.34
2022-10-02T04:53:02.769Z,100989.00
2022-10-02T04:53:43.336Z,100982.78
2022-10-02T04:54:28.829Z,100990.69
2022-10-02T04:55:11.981Z,100982.97
2022-10-02T04:55:58.244Z,100985.56
2022-10-02T04:56:39.138Z,100986.41
2022-10-02T04:57:17.749Z,100979.16
2022-10-02T04:57:59.613Z,100952.63
2022-10-02T04:58:30.778Z,100971.88
2022-10-02T04:59:14.209Z,100982.34
2022-10-02T04:59:48.552Z,100976.72
2022-10-02T05:00:14.026Z,100989.00
2022-10-02T05:00:45.511Z,100982.69
2022-10-02T05:01:21.401Z,100970.28
2022-10-02T05:02:01.966Z,100979.31
2022-10-02T05:02:36.712Z,100975.22
2022-10-02T05:03:17.773Z,100975.16
2022-10-02T05:04:05.621Z,100976.09
2022-10-02T05:04:54.284Z,100972.56
2022-10-02T05:05:28.201Z,100980.00
2022-10-02T05:06:06.107Z,100981.88
2022-10-02T05:06:46.330Z,100973.75
2022-10-02T05:07:29.905Z,100968.47
2022-10-02T05:08:06.976Z,100978.59
2022-10-02T05:08:45.400Z,100967.38
2022-10-02T05:09:16.134Z,100971.44
2022-10-02T05:09:51.199Z,100980.88
2022-10-02T05:10:33.631Z,100985.56
2022-10-02T05:11:16.525Z,100989.19
2022-10-02T05:12:01.626Z,100979.31
2022-10-02T05:12:50.164Z,100985.72
2022-10-02T05:13:33.838Z,100982.28
2022-10-02T05:14:23.621Z,100985.91
2022-10-02T05:15:04.418Z,100983.34
2022-10-02T05:15:45.037Z,100983.28
2022-10-02T05:16:15.933Z,100985.03
2022-10-02T05:16:58.733Z,100989.25
2022-10-02T05:17:42.036Z,100984.69
2022-10-02T05:18:20.137Z,100988.66
2022-10-02T05:19:05.221Z,100989.34
2022-10-02T05:19:46.422Z,100997.41
2022-10-02T05:20:25.910Z,100987.53
2022-10-02T05:21:11.346Z,100995.31
2022-10-02T05:21:50.128Z,100996.19
2022-10-02T05:22:35.561Z,100997.13
2022-10-02T05:23:32.691Z,100998.88
2022-10-02T05:24:06.929Z,101000.69
2022-10-02T05:24:51.583Z,101004.09
2022-10-02T05:25:37.945Z,101002.19
2022-10-02T05:26:15.899Z,101005.81
2022-10-02T05:27:04.091Z,100994.31
2022-10-02T05:27:50.012Z,100997.69
2022-10-02T05:28:33.641Z,101003.72
2022-10-02T05:29:08.859Z,101001.03
2022-10-02T05:29:46.029Z,100996.47
2022-10-02T05:30:11.991Z,101000.91
2022-10-02T05:30:44.420Z,101003.47
2022-10-02T05:31:17.937Z,100989.22
2022-10-02T05:32:01.641Z,100997.16
2022-10-02T05:32:42.789Z,101006.00
2022-10-02T05:33:24.614Z,100997.09
2022-10-02T05:33:54.901Z,101000.56
2022-10-02T05:34:38.115Z,101001.66
2022-10-02T05:35:16.993Z,101003.59
2022-10-02T05:35:55.824Z,101007.81
2022-10-02T05:36:49.585Z,101001.78
2022-10-02T05:37:27.681Z,101009.63
2022-10-02T05:38:05.292Z,101015.88
2022-10-02T05:38:47.870Z,101003.59
2022-10-02T05:39:16.557Z,101004.44
2022-10-02T05:39:46.529Z,101008.78
2022-10-02T05:40:17.362Z,101009.56